EGBJ/GLO METAR and TAF weather

Enter ICAO airport designator
Station Type Date Time Source
EGBJ METAR 2019/12/09 19:20 UTC NOAA

EGBJ 091920Z 23003KT CAVOK 04/02 Q1024


Station Type Date Time Source
EGBJ Decoded METAR 2019/12/09 19:20 UTC NOAA

Staverton Private , United Kingdom (EGBJ) 51-54N 002-10W
Dec 09, 2019 - 02:20 PM EST / 2019.12.09 1920 UTC
Wind: from the SW (230 degrees) at 3 MPH (3 KT):0
Visibility: greater than 7 mile(s):0
Temperature: 39 F (4 C)
Dew Point: 35 F (2 C)
Relative Humidity: 86%
Pressure (altimeter): 30.24 in. Hg (1024 hPa)
ob: EGBJ 091920Z 23003KT CAVOK 04/02 Q1024
cycle: 19

Station Type Date Time Source
EGBJ TAF UTC NOAA

Error!

Example: see airport list